Relevés horaires Matro (Suisse)


Relevés horaires à Matro - Mardi 12 Févr. 2019
Heure UTC1 Température [°C] Vent [km/h] Hum. [%] Pres.4 [hPa] Visi. [Km] Nébu. [octa] Préc.5 [mm] Cond.
2m. Res. Ros. Dir.2 Vit. Moy. Raf.3
23:00 -3.3 -10.5 -10.1 NNO 27.8 -- 50.0 59 850(1.5/3h) -- -- -- --
22:00 -3.4 -11.7 -10.6 NO 37.0 -- 51.9 57 850(1.9/3h) -- -- -- --
21:00 -3.6 -11.5 -11.6 NO 33.3 -- 64.8 54 850(1.8/3h) -- -- -- --
20:00 -3.8 -12 -12.6 NNO 35.2 -- 63.0 50 850(2.0/3h) -- -- -- --
19:00 -3.8 -12.7 -13.6 NNO 42.6 -- 64.8 46 850(1.2/3h) -- -- -- --
18:00 -4.5 -13.8 -14.9 NNO 44.4 -- 90.7 44 850(0.8/3h) -- -- -- --
17:00 -5.0 -14.8 -12.0 NNO 48.2 -- 70.4 58 850(0.3/3h) -- -- -- --
16:00 -4.0 -12.8 -18.0 NO 40.7 -- 57.4 33 850(0.7/3h) -- -- -- --
15:00 -3.8 -13.2 -22.6 NO 48.2 -- 90.7 22 850(0.7/3h) -- -- -- --
14:00 -3.1 -12.4 -27.1 NNO 50.0 -- 90.7 14 850(0.2/3h) -- -- -- --
13:00 -2.8 -11.7 -27.0 NO 46.3 -- 88.9 13 850(0.1/3h) -- -- -- --
12:00 -2.7 -11.8 -26.7 NO 50.0 -- 101.9 14 850(0.1/3h) -- -- -- --
11:00 -2.8 -12.1 -27.1 NNO 51.9 -- 77.8 13 850(0.5/3h) -- -- -- --
10:00 -4.4 -13.8 -22.2 NNO 46.3 -- 87.0 23 850(0.7/3h) -- -- -- --
09:00 -4.9 -14.5 -27.0 NO 46.3 -- 70.4 16 850(0.8/3h) -- -- -- --
08:00 -6.8 -16.4 -23.3 NNO 38.9 -- 57.4 25 850(1.2/3h) -- -- -- --
07:00 -8.5 -18.8 -19.1 NNO 40.7 -- 53.7 42 850(1.1/3h) -- -- -- --
06:00 -8.9 -19.6 -16.8 NNO 42.6 -- 92.6 53 850(1.1/3h) -- -- -- --
05:00 -8.8 -20.5 -16.3 NNO 53.7 -- 81.5 54 850(0.7/3h) -- -- -- --
04:00 -8.9 -20.9 -15.2 NNO 57.4 -- 81.5 60 850(0.6/3h) -- -- -- --
03:00 -8.7 -21.2 -15.3 NNO 64.8 -- 92.6 59 850(0.9/3h) -- -- -- --
02:00 -8.4 -20.4 -16.2 NNO 59.3 -- 92.6 53 850(0.9/3h) -- -- -- --
01:00 -8.6 -19.9 -15.2 NNO 50.0 -- 81.5 59 850(0.9/3h) -- -- -- --
00:00 -8.6 -19.5 -14.7 NO 46.3 -- 81.5 61 850(1.2/3h) -- -- -- --

1 Coordinated Universal Time. Actuellement il est 13:00 locale et 11:00 UTC.

2 Le vent souffle depuis la direction indiquée vers la direction oposée.

3 Les rafales max. sont disponible 40 min après l'heure du relevé.

4 Pour les stations d'altitude (plus de 600m) le géopotentiel du niveau le plus proche de la pression obligatoire est indiqué.

5 Les stations disposant d'un diffuseur peuvent indiquer "trace". Cela signifie que des précipitations ont touchés le sol mais que la quantité est inférieure à 0.1 mm.

Copyright

Les données affichées sur cette page sont la propriété exclusive de Météo Suisse.

Récapitulatif de la journée
Température [°C] Vent [km/h] Ensoleillement4 [h] Precipitations totale5 [mm] Pression [Hpa]
Min1 Max.2 Moy.3 Max. Min Max.
-9.2 -2.7 0 101.9 8 h 30 min 0 850.0 850.0

1 Température minimale relevée entre 18:00 UTC la veille et 18:00 UTC le jour donné.

2 Température maximale relevée entre 06:00 UTC le jour donné et 06:00 UTC le lendemain.

3 Vent moyen de la journée basé sur les relevés horaires.

4 Ensoleillement en heures relevé entre 06:00 UTC la veille et 06:00 UTC le jour donné.

5 Précipitations totales tombées entre 06:00 UTC la jour donné et 06:00 UTC le lendemain.

Graphiques horaires